RAIN

Not for real navigation. The accuracy of this data is not assured See disclaimer for more information



ICAO NAME COUNTRY WIND Kt GUST Kt VIS m TEMP/DEW C BARO METAR
CYYB North Bay, Ont. Canada 9 22 200 19/0 29.79 CYYB 222000Z 22009G22KT 0.125SM R08/1400FT/N -RA FG VV001 19/ A2979 RMK FG8 SLP089 DENSITY ALT 2100F
MMSL 15 0 800 27/25 29.91 MMSL 222007Z 12015KT 0.5SM RA BKN010 27/25 A2991 RMK 8/400 RAB04/CB N
KBID Block Island, Block Island Sta RI United States 12 0 800 0/0 30.09 KBID 222025Z AUTO 22012KT 0.5SM FG OVC003 A3009 RMK AO2 FZRANO $
KMCD Macinac Island, Mackinac Islan MI United States 3 0 1200 20/20 29.72 KMCD 222015Z AUTO 24003KT 0.75SM RA OVC003 20/20 A2972 RMK AO2 P0004 T02000200
KBNW Boone Municipal IA United States 7 14 1200 18/17 29.87 KBNW 222015Z AUTO 32007G14KT 0.75SM RA BKN007 OVC014 18/17 A2987 RMK AO2

Show more